Time;durP1;ratioP1;P1;durP2;ratioP2;P2;SDS_P1;SDS_P2;PMS_P1;PMS_P2;Temp;Humidity;BMP_temperature;BMP_pressure;BME280_temperature;BME280_humidity;BME280_pressure;Samples;Min_cycle;Max_cycle;Signal;HPM_P1;HPM_P2
2022/07/29 00:00:23;;;;;;;12.13;11.53;;;19.70;81.30;;;;;;5061264;28;20489;-67
2022/07/29 00:02:51;;;;;;;12.63;11.57;;;19.60;81.40;;;;;;5064071;28;20564;-66
2022/07/29 00:05:18;;;;;;;12.33;11.53;;;19.60;81.50;;;;;;5059400;28;20966;-67
2022/07/29 00:07:45;;;;;;;13.13;12.20;;;19.70;81.50;;;;;;5060772;28;20471;-66
2022/07/29 00:10:12;;;;;;;12.70;11.80;;;19.70;81.20;;;;;;5065618;28;20468;-68
2022/07/29 00:12:41;;;;;;;12.70;11.70;;;19.70;81.20;;;;;;5058760;28;20460;-66
2022/07/29 00:15:08;;;;;;;13.23;12.23;;;19.70;81.20;;;;;;5060574;28;20487;-67
2022/07/29 00:17:35;;;;;;;12.17;11.40;;;19.70;81.70;;;;;;5058612;28;20459;-67
2022/07/29 00:20:02;;;;;;;13.07;11.87;;;19.60;81.70;;;;;;5061760;28;20487;-67
2022/07/29 00:22:29;;;;;;;13.03;12.10;;;19.60;81.90;;;;;;5061312;28;20467;-66
2022/07/29 00:24:56;;;;;;;12.30;11.50;;;19.60;82.30;;;;;;5060909;28;20467;-67
2022/07/29 00:27:23;;;;;;;12.43;11.73;;;19.60;81.90;;;;;;5057788;28;20491;-67
2022/07/29 00:29:52;;;;;;;11.90;11.30;;;19.50;82.70;;;;;;5063159;28;20886;-67
2022/07/29 00:32:19;;;;;;;12.07;11.37;;;19.50;83.00;;;;;;5058671;28;20553;-67
2022/07/29 00:37:31;;;;;;;12.20;11.50;;;19.50;83.40;;;;;;5061267;28;20485;-67
2022/07/29 00:39:57;;;;;;;12.70;11.87;;;19.50;83.90;;;;;;5056773;28;20486;-67
2022/07/29 00:42:25;;;;;;;13.30;12.10;;;19.40;84.40;;;;;;5062555;28;20511;-67
2022/07/29 00:44:54;;;;;;;13.03;11.80;;;19.40;84.70;;;;;;5054896;28;20953;-67
2022/07/29 00:47:21;;;;;;;13.73;12.73;;;19.40;84.70;;;;;;5055486;28;20468;-67
2022/07/29 00:49:49;;;;;;;12.73;11.93;;;19.60;84.20;;;;;;5064098;28;21025;-67
2022/07/29 00:52:16;;;;;;;13.00;12.07;;;19.40;85.30;;;;;;5058088;28;20463;-67
2022/07/29 00:54:44;;;;;;;12.83;11.97;;;19.30;85.30;;;;;;5056020;28;20475;-67
2022/07/29 00:57:11;;;;;;;13.27;12.17;;;19.20;86.30;;;;;;5054099;28;20458;-66
2022/07/29 00:59:40;;;;;;;13.20;12.20;;;19.10;86.90;;;;;;5060183;28;20497;-67
2022/07/29 01:02:08;;;;;;;15.90;12.47;;;19.00;87.50;;;;;;5063336;28;20469;-67
2022/07/29 01:04:35;;;;;;;12.57;11.80;;;18.90;88.60;;;;;;5062263;28;20463;-67
2022/07/29 01:07:03;;;;;;;13.00;12.20;;;19.00;89.10;;;;;;5062930;28;20473;-67
2022/07/29 01:09:32;;;;;;;12.33;11.70;;;19.00;89.50;;;;;;5058913;28;20448;-66
2022/07/29 01:11:59;;;;;;;19.73;12.33;;;19.00;89.60;;;;;;5060505;28;20466;-67
2022/07/29 01:14:27;;;;;;;14.17;12.30;;;19.00;90.10;;;;;;5058431;28;20869;-67
2022/07/29 01:17:01;;;;;;;13.07;12.30;;;19.00;90.40;;;;;;5062875;28;21103;-67
2022/07/29 01:19:47;;;;;;;13.50;12.30;;;19.00;90.10;;;;;;5062992;28;20493;-66
2022/07/29 01:22:28;;;;;;;13.23;12.10;;;19.00;90.70;;;;;;5058415;28;20848;-67
2022/07/29 01:25:17;;;;;;;14.00;12.77;;;19.00;90.80;;;;;;5064403;28;20531;-66
2022/07/29 01:27:59;;;;;;;14.17;12.93;;;19.00;90.90;;;;;;5054932;28;20470;-67
2022/07/29 01:30:33;;;;;;;14.03;13.27;;;19.00;91.20;;;;;;5061721;28;20489;-67
2022/07/29 01:33:02;;;;;;;14.07;12.90;;;19.00;91.30;;;;;;5062495;28;20463;-67
2022/07/29 01:35:34;;;;;;;12.87;12.20;;;18.90;91.90;;;;;;5054614;28;20467;-66
2022/07/29 01:38:06;;;;;;;12.97;12.03;;;18.80;92.10;;;;;;5059498;28;20471;-67
2022/07/29 01:40:38;;;;;;;13.03;12.33;;;18.80;92.80;;;;;;5061701;28;20495;-66
2022/07/29 01:43:11;;;;;;;14.30;13.20;;;18.70;92.60;;;;;;5058684;28;21033;-66
2022/07/29 01:45:42;;;;;;;13.53;12.60;;;18.70;92.90;;;;;;5060173;28;20466;-67
2022/07/29 01:48:16;;;;;;;15.73;13.60;;;18.60;93.10;;;;;;5057377;28;20466;-67
2022/07/29 01:50:49;;;;;;;13.57;12.70;;;18.60;93.40;;;;;;5057945;28;20459;-66
2022/07/29 01:53:26;;;;;;;15.13;13.90;;;18.60;93.50;;;;;;5053944;28;20459;-66
2022/07/29 01:55:55;;;;;;;14.47;13.17;;;18.50;93.70;;;;;;5062703;28;20937;-66
2022/07/29 01:58:23;;;;;;;13.83;12.60;;;18.50;93.90;;;;;;5055950;28;20460;-67
2022/07/29 02:00:53;;;;;;;14.30;13.50;;;18.50;94.10;;;;;;5059771;28;20944;-67
2022/07/29 02:03:22;;;;;;;13.97;12.90;;;18.50;94.40;;;;;;5061419;28;20455;-66
2022/07/29 02:05:51;;;;;;;13.73;12.80;;;18.50;94.60;;;;;;5061204;28;20467;-66
2022/07/29 02:08:20;;;;;;;13.53;12.63;;;18.50;94.50;;;;;;5060682;28;20459;-66
2022/07/29 02:10:48;;;;;;;15.70;14.30;;;18.50;94.50;;;;;;5065177;28;20981;-66
2022/07/29 02:13:17;;;;;;;15.00;13.53;;;18.50;94.20;;;;;;5063779;28;20466;-67
2022/07/29 02:15:46;;;;;;;13.80;12.60;;;18.50;94.50;;;;;;5062564;28;20483;-66
2022/07/29 02:18:18;;;;;;;13.23;12.43;;;18.50;94.20;;;;;;5061213;28;20826;-66
2022/07/29 02:20:47;;;;;;;13.73;12.83;;;18.50;94.30;;;;;;5061824;28;20494;-67
2022/07/29 02:23:18;;;;;;;13.50;12.53;;;18.50;94.20;;;;;;5064445;28;20469;-66
2022/07/29 02:25:45;;;;;;;13.20;12.60;;;18.50;94.40;;;;;;5062863;28;20833;-67
2022/07/29 02:28:15;;;;;;;14.63;12.57;;;18.50;94.30;;;;;;5060897;28;20961;-66
2022/07/29 02:30:43;;;;;;;14.67;13.47;;;18.40;94.50;;;;;;5067992;28;20457;-67
2022/07/29 02:33:16;;;;;;;14.27;13.20;;;18.50;94.80;;;;;;5058539;28;20460;-66
2022/07/29 02:35:45;;;;;;;13.13;12.17;;;18.50;94.80;;;;;;5060237;28;20470;-66
2022/07/29 02:41:02;;;;;;;14.23;13.03;;;18.50;95.00;;;;;;5062059;28;21012;-66
2022/07/29 02:43:31;;;;;;;13.43;12.70;;;18.50;95.40;;;;;;5066241;28;20467;-66
2022/07/29 02:46:00;;;;;;;13.47;12.40;;;18.50;95.70;;;;;;5063164;28;20490;-67
2022/07/29 02:48:38;;;;;;;13.37;12.50;;;18.40;96.20;;;;;;5061410;28;20470;-66
2022/07/29 02:51:09;;;;;;;13.50;12.70;;;18.40;96.50;;;;;;5061446;28;20846;-67
2022/07/29 02:53:39;;;;;;;14.10;12.90;;;18.40;97.00;;;;;;5059423;28;20498;-67
2022/07/29 02:56:11;;;;;;;14.23;13.33;;;18.40;97.30;;;;;;5059462;28;20465;-66
2022/07/29 02:58:42;;;;;;;15.00;12.70;;;18.30;97.60;;;;;;5067369;28;20454;-66
2022/07/29 03:01:13;;;;;;;15.87;14.73;;;18.30;97.90;;;;;;5057096;28;20508;-65
2022/07/29 03:03:56;;;;;;;18.47;17.27;;;18.20;99.90;;;;;;5067313;28;20461;-66
2022/07/29 03:06:27;;;;;;;19.10;18.10;;;17.90;99.90;;;;;;5068068;28;20875;-68
2022/07/29 03:08:55;;;;;;;19.53;18.17;;;17.50;99.90;;;;;;5059410;28;20452;-65
2022/07/29 03:11:23;;;;;;;20.93;19.37;;;17.30;99.90;;;;;;5060254;28;20471;-65
2022/07/29 03:13:51;;;;;;;19.33;17.70;;;17.20;99.90;;;;;;5062402;28;20798;-66
2022/07/29 03:16:20;;;;;;;18.87;17.47;;;17.00;99.90;;;;;;5063415;28;20520;-66
2022/07/29 03:18:48;;;;;;;17.30;16.20;;;16.80;99.90;;;;;;5060224;28;20961;-66
2022/07/29 03:21:19;;;;;;;17.50;16.10;;;16.70;99.90;;;;;;5058984;28;20585;-67
2022/07/29 03:23:47;;;;;;;24.50;22.10;;;16.60;99.90;;;;;;5058557;28;20470;-65
2022/07/29 03:26:14;;;;;;;24.80;22.47;;;16.50;99.90;;;;;;5055765;28;20474;-65
2022/07/29 03:28:42;;;;;;;25.43;23.13;;;16.30;99.90;;;;;;5056139;28;20464;-65
2022/07/29 03:31:09;;;;;;;25.90;23.50;;;16.00;99.90;;;;;;5059368;28;20463;-69
2022/07/29 03:33:36;;;;;;;26.97;24.27;;;15.80;99.90;;;;;;5061121;28;22930;-69
2022/07/29 03:36:03;;;;;;;26.47;23.87;;;15.70;99.90;;;;;;5057544;28;20471;-67
2022/07/29 03:38:34;;;;;;;26.00;23.70;;;15.60;99.90;;;;;;5067050;28;20463;-67
2022/07/29 03:41:06;;;;;;;26.00;23.80;;;15.60;99.90;;;;;;5061541;28;20579;-67
2022/07/29 03:43:36;;;;;;;26.37;24.20;;;15.50;99.90;;;;;;5056721;28;20553;-67
2022/07/29 03:46:08;;;;;;;24.87;22.67;;;15.50;99.90;;;;;;5062001;28;20474;-68
2022/07/29 03:48:37;;;;;;;24.40;22.60;;;15.40;99.90;;;;;;5064939;28;20832;-70
2022/07/29 03:51:04;;;;;;;25.53;23.13;;;15.40;99.90;;;;;;5061636;28;20507;-68
2022/07/29 03:53:35;;;;;;;24.87;22.47;;;15.40;99.90;;;;;;5068179;28;20463;-68
2022/07/29 03:56:04;;;;;;;23.90;22.00;;;15.40;99.90;;;;;;5063044;28;20787;-68
2022/07/29 03:58:32;;;;;;;23.30;21.40;;;15.50;99.90;;;;;;5056806;28;20466;-70
2022/07/29 04:01:00;;;;;;;23.37;21.37;;;15.50;99.90;;;;;;5053700;28;20518;-68
2022/07/29 04:03:27;;;;;;;23.73;21.63;;;15.50;99.90;;;;;;5043549;28;20464;-68
2022/07/29 04:06:05;;;;;;;23.27;21.20;;;15.50;99.90;;;;;;5034997;28;20471;-65
2022/07/29 04:08:34;;;;;;;23.50;21.70;;;15.40;99.90;;;;;;5036878;28;20471;-66
2022/07/29 04:11:01;;;;;;;26.17;23.07;;;15.50;99.90;;;;;;5035955;28;20452;-65
2022/07/29 04:13:27;;;;;;;23.37;21.47;;;15.50;99.90;;;;;;5034875;28;20474;-65
2022/07/29 04:15:54;;;;;;;24.03;21.87;;;15.50;99.90;;;;;;5035127;28;20486;-66
2022/07/29 04:18:22;;;;;;;22.27;20.57;;;15.50;99.90;;;;;;5036720;28;21119;-66
2022/07/29 04:20:49;;;;;;;22.80;20.93;;;15.50;99.90;;;;;;5035609;28;20495;-66
2022/07/29 04:23:15;;;;;;;24.00;21.47;;;15.50;99.90;;;;;;5036432;28;20550;-66
2022/07/29 04:25:44;;;;;;;22.33;20.17;;;15.60;99.90;;;;;;5037069;28;20471;-66
2022/07/29 04:28:11;;;;;;;20.20;18.73;;;15.60;99.90;;;;;;5035940;28;21051;-66
2022/07/29 04:30:39;;;;;;;19.90;18.40;;;15.60;99.90;;;;;;5036013;28;20659;-65
2022/07/29 04:33:07;;;;;;;19.63;17.90;;;15.60;99.90;;;;;;5036538;28;20462;-67
2022/07/29 04:35:37;;;;;;;18.30;17.10;;;15.60;99.90;;;;;;5035297;28;20463;-67
2022/07/29 04:38:04;;;;;;;24.60;17.67;;;15.50;99.90;;;;;;5036335;28;20537;-66
2022/07/29 04:40:32;;;;;;;18.00;16.40;;;15.60;99.90;;;;;;5037540;28;21100;-67
2022/07/29 04:43:01;;;;;;;19.10;17.17;;;15.50;99.90;;;;;;5038816;28;20460;-66
2022/07/29 04:45:28;;;;;;;19.20;17.70;;;15.60;99.90;;;;;;5038824;28;20999;-65
2022/07/29 04:47:55;;;;;;;21.77;19.80;;;15.70;99.90;;;;;;5038675;28;20482;-65
2022/07/29 04:50:22;;;;;;;23.60;21.27;;;15.70;99.90;;;;;;5036920;28;20509;-66
2022/07/29 04:52:50;;;;;;;24.20;21.70;;;15.80;99.90;;;;;;5036632;28;20463;-66
2022/07/29 04:55:17;;;;;;;24.53;22.33;;;15.70;99.90;;;;;;5035675;28;21402;-66
2022/07/29 04:57:44;;;;;;;25.60;23.30;;;15.60;99.90;;;;;;5038902;28;20462;-68
2022/07/29 05:00:13;;;;;;;26.80;22.67;;;15.50;99.90;;;;;;5037615;28;20471;-65
2022/07/29 05:02:40;;;;;;;24.83;22.93;;;15.50;99.90;;;;;;5037050;28;20460;-67
2022/07/29 05:05:08;;;;;;;25.17;22.83;;;15.50;99.90;;;;;;5037785;28;20549;-67
2022/07/29 05:07:35;;;;;;;25.33;23.17;;;15.50;99.90;;;;;;5036087;28;20463;-68
2022/07/29 05:10:02;;;;;;;26.23;23.43;;;15.50;99.90;;;;;;5036227;28;21039;-65
2022/07/29 05:12:29;;;;;;;25.10;23.10;;;15.50;99.90;;;;;;5036736;28;21125;-66
2022/07/29 05:14:56;;;;;;;25.50;23.60;;;15.60;99.90;;;;;;5038000;28;21031;-66
2022/07/29 05:17:25;;;;;;;25.60;23.67;;;15.60;99.90;;;;;;5037900;28;20847;-66
2022/07/29 05:19:52;;;;;;;24.90;22.60;;;15.60;99.90;;;;;;5036751;28;20458;-66
2022/07/29 05:22:20;;;;;;;24.30;22.40;;;15.60;99.90;;;;;;5038544;28;20503;-67
2022/07/29 05:24:47;;;;;;;24.33;22.10;;;15.60;99.90;;;;;;5038037;28;20932;-66
2022/07/29 05:27:14;;;;;;;23.90;22.00;;;15.60;99.90;;;;;;5037760;28;20475;-66
2022/07/29 05:29:41;;;;;;;23.77;22.03;;;15.60;99.90;;;;;;5036276;28;20486;-65
2022/07/29 05:32:08;;;;;;;24.90;23.00;;;15.70;99.90;;;;;;5037023;28;20486;-66
2022/07/29 05:34:36;;;;;;;25.10;23.10;;;15.70;99.90;;;;;;5037990;28;20469;-66
2022/07/29 05:37:03;;;;;;;23.73;21.53;;;15.70;99.90;;;;;;5037262;28;20450;-66
2022/07/29 05:39:30;;;;;;;24.40;22.30;;;15.80;99.90;;;;;;5036773;28;20591;-68
2022/07/29 05:41:57;;;;;;;24.47;22.43;;;15.90;99.90;;;;;;5036066;28;20487;-66
2022/07/29 05:44:24;;;;;;;23.70;21.70;;;15.90;99.90;;;;;;5035164;28;20499;-67
2022/07/29 05:46:51;;;;;;;22.67;20.90;;;16.00;99.90;;;;;;5037416;28;20801;-67
2022/07/29 05:49:17;;;;;;;23.00;21.20;;;16.00;99.90;;;;;;5037445;28;20932;-66
2022/07/29 05:51:47;;;;;;;22.80;20.97;;;16.00;99.90;;;;;;5037582;28;20727;-65
2022/07/29 05:56:54;;;;;;;21.53;19.83;;;16.10;99.90;;;;;;5035193;28;20467;-66
2022/07/29 05:59:21;;;;;;;19.60;18.10;;;16.00;99.90;;;;;;5034904;28;20806;-66
2022/07/29 06:01:48;;;;;;;19.37;17.50;;;16.10;99.90;;;;;;5031806;28;20909;-66
2022/07/29 06:04:14;;;;;;;17.77;16.10;;;16.30;99.90;;;;;;5032049;28;20463;-66
2022/07/29 06:06:41;;;;;;;19.23;17.47;;;16.30;99.90;;;;;;5029706;28;20547;-66
2022/07/29 06:09:10;;;;;;;17.67;16.17;;;16.20;99.90;;;;;;5034601;28;20455;-66
2022/07/29 06:11:37;;;;;;;17.60;16.20;;;16.20;99.90;;;;;;5043387;28;20503;-65
2022/07/29 06:14:04;;;;;;;17.73;16.33;;;16.30;99.90;;;;;;5054128;28;20463;-66
2022/07/29 06:16:31;;;;;;;17.30;16.10;;;16.30;99.90;;;;;;5060284;28;20577;-66
2022/07/29 06:18:58;;;;;;;18.30;16.70;;;16.40;99.90;;;;;;5058807;28;20818;-66
2022/07/29 06:21:25;;;;;;;25.23;20.27;;;16.40;99.90;;;;;;5034195;28;20570;-65
2022/07/29 06:23:52;;;;;;;25.30;22.87;;;16.40;99.90;;;;;;5033027;28;20817;-67
2022/07/29 06:26:20;;;;;;;29.47;26.63;;;16.50;99.90;;;;;;5035059;28;20834;-66
2022/07/29 06:28:47;;;;;;;30.20;27.30;;;16.50;99.90;;;;;;5033152;28;20470;-66
2022/07/29 06:31:14;;;;;;;31.63;28.67;;;16.30;99.90;;;;;;5033084;28;20488;-66
2022/07/29 06:33:41;;;;;;;29.60;26.77;;;16.10;99.90;;;;;;5033320;28;20452;-67
2022/07/29 06:36:08;;;;;;;30.00;27.30;;;16.00;99.90;;;;;;5034609;28;20481;-67
2022/07/29 06:38:35;;;;;;;30.63;27.70;;;16.00;99.90;;;;;;5034535;28;20464;-66
2022/07/29 06:41:03;;;;;;;30.10;27.53;;;16.00;99.90;;;;;;5031560;28;21087;-66
2022/07/29 06:43:35;;;;;;;29.73;27.00;;;16.00;99.90;;;;;;5028020;28;21484;-65
2022/07/29 06:46:03;;;;;;;29.40;26.90;;;16.00;99.90;;;;;;5032877;28;22407;-66
2022/07/29 06:48:30;;;;;;;33.17;27.40;;;16.10;99.90;;;;;;5032442;28;20833;-66
2022/07/29 06:50:57;;;;;;;30.37;27.40;;;16.20;99.90;;;;;;5032987;28;20455;-67
2022/07/29 06:53:24;;;;;;;30.80;27.87;;;16.30;99.90;;;;;;5031240;28;21170;-66
2022/07/29 06:55:51;;;;;;;27.90;25.60;;;16.40;99.90;;;;;;5034936;28;20466;-66
2022/07/29 06:58:20;;;;;;;28.30;26.00;;;16.50;99.90;;;;;;5035645;28;20593;-67
2022/07/29 07:00:48;;;;;;;27.03;24.70;;;16.60;99.90;;;;;;5037992;28;21549;-66
2022/07/29 07:03:15;;;;;;;29.43;26.47;;;16.70;99.90;;;;;;5057768;28;20465;-65
2022/07/29 07:05:42;;;;;;;27.90;25.53;;;16.80;99.90;;;;;;5058219;28;20463;-67
2022/07/29 07:08:09;;;;;;;27.33;24.63;;;16.70;99.90;;;;;;5045898;28;20913;-66
2022/07/29 07:10:36;;;;;;;27.13;24.70;;;16.70;99.90;;;;;;5036429;28;20464;-67
2022/07/29 07:13:03;;;;;;;28.27;25.17;;;16.80;99.90;;;;;;5037295;28;21102;-66
2022/07/29 07:15:31;;;;;;;25.60;23.13;;;16.80;99.90;;;;;;5036746;28;22760;-66
2022/07/29 07:17:59;;;;;;;26.10;23.73;;;16.90;99.90;;;;;;5036015;28;21176;-66
2022/07/29 07:20:26;;;;;;;24.60;22.70;;;16.80;99.90;;;;;;5037072;28;20478;-66
2022/07/29 07:22:53;;;;;;;24.90;22.80;;;16.90;99.90;;;;;;5034560;28;20498;-67
2022/07/29 07:25:20;;;;;;;24.47;22.50;;;17.00;99.90;;;;;;5035127;28;20941;-66
2022/07/29 07:27:47;;;;;;;23.50;21.40;;;17.10;99.90;;;;;;5035948;28;20483;-65
2022/07/29 07:30:14;;;;;;;23.17;20.97;;;17.30;99.90;;;;;;5034955;28;22097;-66
2022/07/29 07:32:41;;;;;;;21.33;19.83;;;17.50;99.90;;;;;;5034613;28;20471;-66
2022/07/29 07:35:11;;;;;;;21.70;19.60;;;17.60;99.90;;;;;;5034241;28;21150;-66
2022/07/29 07:37:40;;;;;;;21.10;19.47;;;17.80;99.90;;;;;;5035640;28;21012;-65
2022/07/29 07:40:08;;;;;;;20.40;18.60;;;18.10;99.90;;;;;;5035894;28;20467;-65
2022/07/29 07:42:35;;;;;;;20.60;18.80;;;18.20;99.90;;;;;;5034237;28;20606;-66
2022/07/29 07:45:02;;;;;;;21.27;19.43;;;18.20;99.90;;;;;;5035562;28;20466;-66
2022/07/29 07:47:29;;;;;;;21.37;19.70;;;18.10;99.90;;;;;;5036506;28;22500;-66
2022/07/29 07:49:55;;;;;;;20.17;18.50;;;18.00;99.90;;;;;;5035558;28;20454;-67
2022/07/29 07:52:23;;;;;;;20.73;19.00;;;18.10;99.90;;;;;;5036679;28;20472;-66
2022/07/29 07:54:51;;;;;;;21.13;19.20;;;18.00;99.90;;;;;;5035238;28;20478;-66
2022/07/29 07:57:18;;;;;;;20.50;19.00;;;18.10;99.90;;;;;;5038491;28;20463;-66
2022/07/29 07:59:45;;;;;;;21.20;19.57;;;18.00;99.90;;;;;;5036127;28;20816;-66
2022/07/29 08:02:12;;;;;;;20.87;19.27;;;18.00;99.90;;;;;;5051873;28;20486;-66
2022/07/29 08:04:40;;;;;;;21.40;19.77;;;18.10;99.90;;;;;;5058955;28;20613;-66
2022/07/29 08:07:08;;;;;;;21.60;19.83;;;18.20;99.90;;;;;;5039939;28;20867;-67
2022/07/29 08:09:37;;;;;;;21.30;19.33;;;18.30;99.90;;;;;;5035767;28;20468;-66
2022/07/29 08:12:05;;;;;;;20.90;19.03;;;18.30;99.90;;;;;;5031247;28;21114;-66
2022/07/29 08:14:32;;;;;;;21.73;19.97;;;18.40;99.90;;;;;;5035370;28;20473;-66
2022/07/29 08:16:59;;;;;;;21.93;20.23;;;18.50;99.90;;;;;;5035244;28;20489;-67
2022/07/29 08:19:26;;;;;;;22.37;20.37;;;18.50;99.90;;;;;;5031906;28;20452;-66
2022/07/29 08:21:53;;;;;;;24.47;20.27;;;18.60;99.90;;;;;;5031815;28;20480;-66
2022/07/29 08:27:05;;;;;;;23.30;21.10;;;18.90;99.90;;;;;;5030977;28;20872;-66
2022/07/29 08:29:32;;;;;;;22.10;20.13;;;19.20;99.90;;;;;;5028295;28;20947;-67
2022/07/29 08:31:59;;;;;;;22.23;20.20;;;19.50;99.90;;;;;;5029626;28;20552;-66
2022/07/29 08:34:26;;;;;;;20.40;18.57;;;19.70;99.90;;;;;;5030456;28;21187;-67
2022/07/29 08:36:52;;;;;;;21.50;19.50;;;19.90;99.90;;;;;;5030111;28;20471;-66
2022/07/29 08:39:19;;;;;;;21.83;19.87;;;20.10;99.90;;;;;;5029337;28;23095;-66
2022/07/29 08:41:47;;;;;;;20.13;18.60;;;20.30;99.90;;;;;;5032241;28;20550;-66
2022/07/29 08:44:16;;;;;;;20.67;19.17;;;20.40;99.90;;;;;;5032865;28;20562;-67
2022/07/29 08:46:43;;;;;;;21.30;19.73;;;20.40;99.90;;;;;;5032688;28;20506;-67
2022/07/29 08:49:10;;;;;;;23.90;19.93;;;20.50;99.90;;;;;;5033618;28;20813;-67
2022/07/29 08:51:40;;;;;;;22.67;20.47;;;20.70;99.90;;;;;;5035142;28;20467;-67
2022/07/29 08:54:08;;;;;;;21.27;19.67;;;21.00;99.90;;;;;;5035410;28;20782;-68
2022/07/29 08:56:35;;;;;;;21.23;19.23;;;21.20;99.90;;;;;;5035098;28;20834;-66
2022/07/29 08:59:04;;;;;;;20.43;18.60;;;21.10;99.90;;;;;;5034922;28;20855;-66
2022/07/29 09:01:36;;;;;;;20.87;19.37;;;21.00;99.90;;;;;;5035265;28;20513;-67
2022/07/29 09:04:05;;;;;;;19.83;18.50;;;21.10;99.90;;;;;;5035314;28;20509;-67
2022/07/29 09:06:35;;;;;;;19.70;18.10;;;21.70;99.90;;;;;;5030590;28;21287;-67
2022/07/29 09:09:03;;;;;;;20.17;18.77;;;22.10;99.90;;;;;;5038263;28;20455;-67
2022/07/29 09:11:32;;;;;;;20.03;18.83;;;23.00;99.90;;;;;;5034160;28;20814;-66
2022/07/29 09:14:00;;;;;;;20.10;18.63;;;24.00;99.90;;;;;;5032589;28;20566;-67
2022/07/29 09:16:26;;;;;;;19.87;18.57;;;24.70;99.90;;;;;;5034217;28;20618;-67
2022/07/29 09:18:55;;;;;;;20.00;18.47;;;25.20;99.90;;;;;;5033501;28;20474;-67
2022/07/29 09:24:08;;;;;;;20.07;18.20;;;26.10;99.90;;;;;;5038223;28;20506;-67
2022/07/29 09:26:37;;;;;;;20.77;19.37;;;26.80;99.90;;;;;;5037938;28;20813;-68
2022/07/29 09:29:10;;;;;;;19.83;18.53;;;26.50;99.90;;;;;;5039413;28;20477;-67
2022/07/29 09:31:40;;;;;;;20.70;19.23;;;25.30;99.90;;;;;;5039202;28;20533;-65
2022/07/29 09:34:12;;;;;;;19.57;18.47;;;25.00;99.90;;;;;;5038776;28;20463;-66
2022/07/29 09:36:44;;;;;;;19.80;18.50;;;24.70;99.90;;;;;;5037897;28;20459;-66
2022/07/29 09:39:12;;;;;;;25.10;19.27;;;25.20;99.90;;;;;;5036127;28;20463;-66
2022/07/29 09:41:47;;;;;;;19.73;18.23;;;25.70;99.90;;;;;;5035888;28;21141;-66
2022/07/29 09:44:14;;;;;;;19.87;18.20;;;25.80;99.90;;;;;;5035114;28;20724;-67
2022/07/29 09:46:42;;;;;;;19.60;18.50;;;25.80;99.10;;;;;;5033585;28;20459;-68
2022/07/29 09:49:12;;;;;;;20.77;18.97;;;26.50;99.90;;;;;;5033199;28;20495;-67
2022/07/29 09:51:40;;;;;;;20.77;19.47;;;27.00;97.40;;;;;;5031806;28;20541;-68
2022/07/29 09:54:22;;;;;;;21.00;19.60;;;28.00;97.80;;;;;;5033710;28;20459;-68
2022/07/29 09:56:49;;;;;;;20.90;19.43;;;28.00;92.20;;;;;;5032778;28;20470;-67
2022/07/29 09:59:16;;;;;;;21.23;19.53;;;27.80;91.30;;;;;;5030170;28;20834;-68
2022/07/29 10:01:43;;;;;;;19.87;18.60;;;27.30;91.50;;;;;;5031584;28;20995;-67
2022/07/29 10:04:12;;;;;;;20.27;18.97;;;26.60;92.40;;;;;;5033100;28;20915;-68
2022/07/29 10:06:57;;;;;;;19.67;18.47;;;26.40;94.10;;;;;;5033949;28;20950;-69
2022/07/29 10:09:26;;;;;;;21.33;18.73;;;26.30;93.90;;;;;;5052400;28;20466;-67
2022/07/29 10:12:07;;;;;;;19.43;17.83;;;25.60;95.10;;;;;;5066046;28;20455;-67
2022/07/29 10:14:36;;;;;;;19.47;18.17;;;25.00;95.30;;;;;;5061500;28;20463;-69
2022/07/29 10:17:04;;;;;;;19.97;18.67;;;24.90;95.50;;;;;;5064544;28;20487;-67
2022/07/29 10:19:33;;;;;;;19.70;18.40;;;25.00;95.50;;;;;;5037277;28;20842;-66
2022/07/29 10:22:01;;;;;;;20.20;18.83;;;25.10;96.00;;;;;;5033946;28;20612;-69
2022/07/29 10:24:31;;;;;;;19.20;18.00;;;25.40;96.10;;;;;;5034485;28;20451;-68
2022/07/29 10:27:00;;;;;;;19.33;18.10;;;25.30;96.50;;;;;;5035083;28;20971;-67
2022/07/29 10:29:28;;;;;;;18.70;17.30;;;24.90;97.20;;;;;;5033637;28;20478;-68
2022/07/29 10:32:08;;;;;;;20.20;18.80;;;25.10;98.10;;;;;;5037636;28;20471;-68
2022/07/29 10:34:54;;;;;;;19.70;17.90;;;25.50;98.10;;;;;;5038080;28;20855;-68
2022/07/29 10:37:29;;;;;;;19.47;17.77;;;25.50;96.20;;;;;;5037998;28;20459;-67
2022/07/29 10:41:25;;;;;;;20.17;18.40;;;25.70;98.00;;;;;;5037619;28;20462;-69
2022/07/29 10:42:53;;;;;;;18.77;17.53;;;26.00;96.00;;;;;;5035388;28;20640;-67
2022/07/29 10:45:20;;;;;;;19.83;18.33;;;26.20;96.00;;;;;;5037718;28;20994;-69
2022/07/29 10:47:47;;;;;;;20.10;18.60;;;26.80;96.30;;;;;;5037557;28;20456;-69
2022/07/29 10:50:16;;;;;;;20.37;18.80;;;26.90;95.40;;;;;;5036030;28;20484;-67
2022/07/29 10:53:04;;;;;;;19.63;18.23;;;26.30;96.00;;;;;;5034315;28;20467;-69
2022/07/29 10:55:33;;;;;;;19.43;18.13;;;26.00;96.20;;;;;;5031987;28;20744;-67
2022/07/29 10:58:13;;;;;;;19.77;18.00;;;25.90;95.80;;;;;;5037237;28;20926;-68
2022/07/29 11:00:40;;;;;;;19.23;17.93;;;26.00;96.40;;;;;;5037268;28;20532;-67
2022/07/29 11:03:06;;;;;;;18.37;17.20;;;25.80;95.20;;;;;;5036737;28;20495;-68
2022/07/29 11:05:54;;;;;;;19.50;18.10;;;25.50;96.00;;;;;;5036841;28;20459;-67
2022/07/29 11:08:25;;;;;;;18.87;17.77;;;25.40;96.10;;;;;;5037414;28;20471;-68
2022/07/29 11:10:54;;;;;;;19.70;18.40;;;25.30;96.90;;;;;;5036767;28;20471;-66
2022/07/29 11:13:47;;;;;;;19.47;18.00;;;25.20;96.90;;;;;;5036947;28;20828;-67
2022/07/29 11:16:15;;;;;;;19.93;18.20;;;25.10;96.60;;;;;;5023813;28;20481;-67
2022/07/29 11:19:15;;;;;;;19.10;17.90;;;25.10;97.70;;;;;;5016432;28;20492;-67
2022/07/29 11:21:46;;;;;;;19.23;18.03;;;25.40;96.50;;;;;;5009856;28;20484;-66
2022/07/29 11:24:14;;;;;;;20.23;18.70;;;25.90;96.30;;;;;;5016828;28;20500;-67
2022/07/29 11:26:41;;;;;;;20.20;18.47;;;25.70;97.40;;;;;;5016248;28;20470;-68
2022/07/29 11:29:19;;;;;;;20.93;19.00;;;25.30;97.90;;;;;;5016527;28;20461;-67
2022/07/29 11:31:51;;;;;;;19.77;18.30;;;25.00;99.00;;;;;;5016782;28;20529;-66
2022/07/29 11:34:20;;;;;;;19.50;18.23;;;25.00;97.80;;;;;;5017011;28;20959;-66
2022/07/29 11:37:23;;;;;;;19.10;17.70;;;24.60;99.10;;;;;;5017619;28;20464;-66
2022/07/29 11:40:16;;;;;;;19.97;18.53;;;24.40;99.00;;;;;;5017056;28;21307;-68
2022/07/29 11:42:45;;;;;;;20.40;18.90;;;24.80;99.40;;;;;;5016852;28;20516;-66
2022/07/29 11:45:15;;;;;;;19.87;18.47;;;24.90;99.10;;;;;;5017350;28;20492;-67
2022/07/29 11:47:48;;;;;;;18.77;17.63;;;25.30;99.30;;;;;;5016570;28;20838;-67
2022/07/29 11:50:17;;;;;;;19.70;18.50;;;26.10;97.50;;;;;;5016966;28;21267;-67
2022/07/29 11:52:47;;;;;;;20.30;18.70;;;27.10;96.30;;;;;;5016190;28;20467;-66
2022/07/29 11:55:17;;;;;;;20.47;19.10;;;27.20;95.70;;;;;;5017004;28;20512;-67
2022/07/29 11:57:48;;;;;;;19.13;17.70;;;27.20;95.20;;;;;;5016062;28;20556;-67
2022/07/29 12:00:24;;;;;;;19.00;17.67;;;26.80;95.00;;;;;;5016891;28;20467;-67
2022/07/29 12:02:51;;;;;;;19.47;18.27;;;26.90;94.60;;;;;;5015566;28;20487;-66
2022/07/29 12:05:18;;;;;;;20.17;18.77;;;27.10;95.70;;;;;;5015315;28;20464;-67
2022/07/29 12:07:47;;;;;;;19.23;18.00;;;27.30;95.40;;;;;;5016665;28;21201;-69
2022/07/29 12:10:14;;;;;;;20.00;18.60;;;27.80;96.10;;;;;;5015880;28;20449;-67
2022/07/29 12:12:41;;;;;;;20.80;18.97;;;28.80;94.80;;;;;;5015859;28;22441;-68
2022/07/29 12:15:17;;;;;;;18.37;16.73;;;29.50;93.50;;;;;;5016054;28;20483;-68
2022/07/29 12:17:45;;;;;;;19.83;18.20;;;29.80;92.50;;;;;;5015420;28;20511;-68
2022/07/29 12:20:12;;;;;;;17.93;16.80;;;29.60;89.20;;;;;;5015512;28;20464;-67
2022/07/29 12:22:41;;;;;;;20.47;19.17;;;29.10;90.70;;;;;;5014851;28;20500;-68
2022/07/29 12:25:11;;;;;;;19.43;18.10;;;29.70;90.60;;;;;;5015052;28;20474;-68
2022/07/29 12:27:39;;;;;;;19.17;17.67;;;29.90;87.70;;;;;;5015010;28;20884;-69
2022/07/29 12:30:08;;;;;;;18.33;17.03;;;29.60;88.00;;;;;;5015353;28;21042;-69
2022/07/29 12:32:36;;;;;;;19.37;18.07;;;29.80;87.80;;;;;;5015458;28;20859;-68
2022/07/29 12:35:05;;;;;;;19.83;18.40;;;30.00;87.40;;;;;;5015439;28;20634;-69
2022/07/29 12:37:33;;;;;;;19.50;17.77;;;30.00;85.20;;;;;;5014796;28;20468;-69
2022/07/29 12:40:00;;;;;;;20.10;18.60;;;30.00;84.70;;;;;;5015481;28;20504;-68
2022/07/29 12:42:29;;;;;;;19.97;18.33;;;30.30;84.60;;;;;;5014660;28;20480;-70
2022/07/29 12:44:56;;;;;;;18.77;17.43;;;30.30;86.20;;;;;;5014601;28;20461;-69
2022/07/29 12:47:23;;;;;;;19.20;17.90;;;30.50;86.10;;;;;;5015654;28;20471;-69
2022/07/29 12:49:51;;;;;;;18.27;17.03;;;30.30;83.30;;;;;;5014962;28;20457;-69
2022/07/29 12:52:29;;;;;;;19.57;18.10;;;30.70;82.70;;;;;;5014474;28;20734;-69